sensor_id;sensor_type;location;lat;lon;timestamp;temperature;humidity
40077;DHT22;25777;47.824;18.982;2022-12-05T00:01:18;5.50;99.90
40077;DHT22;25777;47.824;18.982;2022-12-05T00:03:46;5.50;99.90
40077;DHT22;25777;47.824;18.982;2022-12-05T00:06:14;5.50;99.90
40077;DHT22;25777;47.824;18.982;2022-12-05T00:08:41;5.50;99.90
40077;DHT22;25777;47.824;18.982;2022-12-05T00:11:22;5.50;99.90
40077;DHT22;25777;47.824;18.982;2022-12-05T00:13:50;5.50;99.90
40077;DHT22;25777;47.824;18.982;2022-12-05T00:16:20;5.50;99.90
40077;DHT22;25777;47.824;18.982;2022-12-05T00:18:48;5.50;99.90
40077;DHT22;25777;47.824;18.982;2022-12-05T00:21:20;5.50;99.90
40077;DHT22;25777;47.824;18.982;2022-12-05T00:23:47;5.50;99.90
40077;DHT22;25777;47.824;18.982;2022-12-05T00:26:14;5.50;99.90
40077;DHT22;25777;47.824;18.982;2022-12-05T00:28:40;5.40;99.90
40077;DHT22;25777;47.824;18.982;2022-12-05T00:31:09;5.40;99.90
40077;DHT22;25777;47.824;18.982;2022-12-05T00:33:35;5.40;99.90
40077;DHT22;25777;47.824;18.982;2022-12-05T00:36:10;5.40;99.90
40077;DHT22;25777;47.824;18.982;2022-12-05T00:38:36;5.40;99.90
40077;DHT22;25777;47.824;18.982;2022-12-05T00:41:04;5.40;99.90
40077;DHT22;25777;47.824;18.982;2022-12-05T00:43:31;5.40;99.90
40077;DHT22;25777;47.824;18.982;2022-12-05T00:46:19;5.40;99.90
40077;DHT22;25777;47.824;18.982;2022-12-05T00:48:46;5.30;99.90
40077;DHT22;25777;47.824;18.982;2022-12-05T00:51:30;5.40;99.90
40077;DHT22;25777;47.824;18.982;2022-12-05T00:53:59;5.40;99.90
40077;DHT22;25777;47.824;18.982;2022-12-05T00:56:26;5.40;99.90
40077;DHT22;25777;47.824;18.982;2022-12-05T00:58:54;5.30;99.90
40077;DHT22;25777;47.824;18.982;2022-12-05T01:01:33;5.30;99.90
40077;DHT22;25777;47.824;18.982;2022-12-05T01:04:06;5.30;99.90
40077;DHT22;25777;47.824;18.982;2022-12-05T01:06:32;5.30;99.90
40077;DHT22;25777;47.824;18.982;2022-12-05T01:08:59;5.30;99.90
40077;DHT22;25777;47.824;18.982;2022-12-05T01:11:25;5.30;99.90
40077;DHT22;25777;47.824;18.982;2022-12-05T01:13:52;5.30;99.90
40077;DHT22;25777;47.824;18.982;2022-12-05T01:16:28;5.30;99.90
40077;DHT22;25777;47.824;18.982;2022-12-05T01:19:00;5.30;99.90
40077;DHT22;25777;47.824;18.982;2022-12-05T01:21:27;5.30;99.90
40077;DHT22;25777;47.824;18.982;2022-12-05T01:23:53;5.30;99.90
40077;DHT22;25777;47.824;18.982;2022-12-05T01:26:21;5.30;99.90
40077;DHT22;25777;47.824;18.982;2022-12-05T01:28:48;5.30;99.90
40077;DHT22;25777;47.824;18.982;2022-12-05T01:31:20;5.30;99.90
40077;DHT22;25777;47.824;18.982;2022-12-05T01:33:47;5.20;99.90
40077;DHT22;25777;47.824;18.982;2022-12-05T01:36:13;5.20;99.90
40077;DHT22;25777;47.824;18.982;2022-12-05T01:38:40;5.20;99.90
40077;DHT22;25777;47.824;18.982;2022-12-05T01:41:09;5.20;99.90
40077;DHT22;25777;47.824;18.982;2022-12-05T01:46:44;5.20;99.90
40077;DHT22;25777;47.824;18.982;2022-12-05T01:49:14;5.20;99.90
40077;DHT22;25777;47.824;18.982;2022-12-05T01:51:42;5.20;99.90
40077;DHT22;25777;47.824;18.982;2022-12-05T01:54:11;5.20;99.90
40077;DHT22;25777;47.824;18.982;2022-12-05T01:56:39;5.20;99.90
40077;DHT22;25777;47.824;18.982;2022-12-05T01:59:08;5.20;99.90
40077;DHT22;25777;47.824;18.982;2022-12-05T02:01:35;5.20;99.90
40077;DHT22;25777;47.824;18.982;2022-12-05T02:04:02;5.20;99.90
40077;DHT22;25777;47.824;18.982;2022-12-05T02:06:29;5.20;99.90
40077;DHT22;25777;47.824;18.982;2022-12-05T02:08:55;5.20;99.90
40077;DHT22;25777;47.824;18.982;2022-12-05T02:11:23;5.10;99.90
40077;DHT22;25777;47.824;18.982;2022-12-05T02:14:12;5.20;99.90
40077;DHT22;25777;47.824;18.982;2022-12-05T02:30:15;5.10;99.90
40077;DHT22;25777;47.824;18.982;2022-12-05T02:32:46;5.10;99.90
40077;DHT22;25777;47.824;18.982;2022-12-05T02:38:24;5.10;99.90
40077;DHT22;25777;47.824;18.982;2022-12-05T02:43:50;5.10;99.90
40077;DHT22;25777;47.824;18.982;2022-12-05T02:46:21;5.10;99.90
40077;DHT22;25777;47.824;18.982;2022-12-05T02:48:50;5.10;99.90
40077;DHT22;25777;47.824;18.982;2022-12-05T02:51:20;5.10;99.90
40077;DHT22;25777;47.824;18.982;2022-12-05T02:53:48;5.10;99.90
40077;DHT22;25777;47.824;18.982;2022-12-05T02:56:15;5.10;99.90
40077;DHT22;25777;47.824;18.982;2022-12-05T02:58:51;5.10;99.90
40077;DHT22;25777;47.824;18.982;2022-12-05T03:01:19;5.10;99.90
40077;DHT22;25777;47.824;18.982;2022-12-05T03:03:47;5.10;99.90
40077;DHT22;25777;47.824;18.982;2022-12-05T03:06:19;5.10;99.90
40077;DHT22;25777;47.824;18.982;2022-12-05T03:08:54;5.10;99.90
40077;DHT22;25777;47.824;18.982;2022-12-05T03:11:22;5.00;99.90
40077;DHT22;25777;47.824;18.982;2022-12-05T03:13:52;5.00;99.90
40077;DHT22;25777;47.824;18.982;2022-12-05T03:16:29;5.00;99.90
40077;DHT22;25777;47.824;18.982;2022-12-05T03:19:05;5.00;99.90
40077;DHT22;25777;47.824;18.982;2022-12-05T03:21:38;5.00;99.90
40077;DHT22;25777;47.824;18.982;2022-12-05T03:24:07;5.00;99.90
40077;DHT22;25777;47.824;18.982;2022-12-05T03:29:57;5.00;99.90
40077;DHT22;25777;47.824;18.982;2022-12-05T03:32:36;5.00;99.90
40077;DHT22;25777;47.824;18.982;2022-12-05T03:35:22;5.00;99.90
40077;DHT22;25777;47.824;18.982;2022-12-05T03:38:10;5.00;99.90
40077;DHT22;25777;47.824;18.982;2022-12-05T03:43:59;5.00;99.90
40077;DHT22;25777;47.824;18.982;2022-12-05T03:46:31;5.00;99.90
40077;DHT22;25777;47.824;18.982;2022-12-05T03:49:23;5.00;99.90
40077;DHT22;25777;47.824;18.982;2022-12-05T03:51:56;5.00;99.90
40077;DHT22;25777;47.824;18.982;2022-12-05T03:54:31;5.00;99.90
40077;DHT22;25777;47.824;18.982;2022-12-05T03:57:07;5.00;99.90
40077;DHT22;25777;47.824;18.982;2022-12-05T04:02:38;5.00;99.90
40077;DHT22;25777;47.824;18.982;2022-12-05T04:05:20;5.00;99.90
40077;DHT22;25777;47.824;18.982;2022-12-05T04:07:53;5.00;99.90
40077;DHT22;25777;47.824;18.982;2022-12-05T04:10:28;5.00;99.90
40077;DHT22;25777;47.824;18.982;2022-12-05T04:12:59;5.00;99.90
40077;DHT22;25777;47.824;18.982;2022-12-05T04:15:50;5.00;99.90
40077;DHT22;25777;47.824;18.982;2022-12-05T04:18:38;5.00;99.90
40077;DHT22;25777;47.824;18.982;2022-12-05T04:21:09;4.90;99.90
40077;DHT22;25777;47.824;18.982;2022-12-05T04:23:54;4.90;99.90
40077;DHT22;25777;47.824;18.982;2022-12-05T04:27:17;4.90;99.90
40077;DHT22;25777;47.824;18.982;2022-12-05T04:30:00;5.00;99.90
40077;DHT22;25777;47.824;18.982;2022-12-05T04:32:32;4.90;99.90
40077;DHT22;25777;47.824;18.982;2022-12-05T04:35:04;5.00;99.90
40077;DHT22;25777;47.824;18.982;2022-12-05T04:37:34;5.00;99.90
40077;DHT22;25777;47.824;18.982;2022-12-05T04:40:16;5.00;99.90
40077;DHT22;25777;47.824;18.982;2022-12-05T04:42:44;5.00;99.90
40077;DHT22;25777;47.824;18.982;2022-12-05T04:45:13;5.00;99.90
40077;DHT22;25777;47.824;18.982;2022-12-05T04:47:44;4.90;99.90
40077;DHT22;25777;47.824;18.982;2022-12-05T04:50:13;4.90;99.90
40077;DHT22;25777;47.824;18.982;2022-12-05T04:52:43;4.90;99.90
40077;DHT22;25777;47.824;18.982;2022-12-05T04:55:20;4.90;99.90
40077;DHT22;25777;47.824;18.982;2022-12-05T04:58:22;4.90;99.90
40077;DHT22;25777;47.824;18.982;2022-12-05T05:01:04;4.90;99.90
40077;DHT22;25777;47.824;18.982;2022-12-05T05:03:49;4.90;99.90
40077;DHT22;25777;47.824;18.982;2022-12-05T05:06:17;4.90;99.90
40077;DHT22;25777;47.824;18.982;2022-12-05T05:08:55;4.90;99.90
40077;DHT22;25777;47.824;18.982;2022-12-05T05:11:24;4.90;99.90
40077;DHT22;25777;47.824;18.982;2022-12-05T05:13:51;4.90;99.90
40077;DHT22;25777;47.824;18.982;2022-12-05T05:16:21;4.90;99.90
40077;DHT22;25777;47.824;18.982;2022-12-05T05:18:48;4.90;99.90
40077;DHT22;25777;47.824;18.982;2022-12-05T05:21:39;4.90;99.90
40077;DHT22;25777;47.824;18.982;2022-12-05T05:24:06;4.90;99.90
40077;DHT22;25777;47.824;18.982;2022-12-05T05:26:35;4.90;99.90
40077;DHT22;25777;47.824;18.982;2022-12-05T05:29:02;5.00;99.90
40077;DHT22;25777;47.824;18.982;2022-12-05T05:31:28;5.00;99.90
40077;DHT22;25777;47.824;18.982;2022-12-05T05:33:56;4.90;99.90
40077;DHT22;25777;47.824;18.982;2022-12-05T05:36:24;4.90;99.90
40077;DHT22;25777;47.824;18.982;2022-12-05T05:38:52;4.90;99.90
40077;DHT22;25777;47.824;18.982;2022-12-05T05:41:24;5.00;99.90
40077;DHT22;25777;47.824;18.982;2022-12-05T05:43:51;4.90;99.90
40077;DHT22;25777;47.824;18.982;2022-12-05T05:46:20;4.90;99.90
40077;DHT22;25777;47.824;18.982;2022-12-05T05:48:48;4.90;99.90
40077;DHT22;25777;47.824;18.982;2022-12-05T05:51:15;5.00;99.90
40077;DHT22;25777;47.824;18.982;2022-12-05T05:53:42;4.90;99.90
40077;DHT22;25777;47.824;18.982;2022-12-05T05:56:10;4.90;99.90
40077;DHT22;25777;47.824;18.982;2022-12-05T05:58:38;4.90;99.90
40077;DHT22;25777;47.824;18.982;2022-12-05T06:01:15;4.90;99.90
40077;DHT22;25777;47.824;18.982;2022-12-05T06:03:43;4.90;99.90
40077;DHT22;25777;47.824;18.982;2022-12-05T06:06:11;4.90;99.90
40077;DHT22;25777;47.824;18.982;2022-12-05T06:08:39;4.90;99.90
40077;DHT22;25777;47.824;18.982;2022-12-05T06:11:26;4.90;99.90
40077;DHT22;25777;47.824;18.982;2022-12-05T06:13:54;4.90;99.90
40077;DHT22;25777;47.824;18.982;2022-12-05T06:16:20;4.90;99.90
40077;DHT22;25777;47.824;18.982;2022-12-05T06:18:46;4.90;99.90
40077;DHT22;25777;47.824;18.982;2022-12-05T06:21:13;4.90;99.90
40077;DHT22;25777;47.824;18.982;2022-12-05T06:23:39;4.90;99.90
40077;DHT22;25777;47.824;18.982;2022-12-05T06:26:10;4.90;99.90
40077;DHT22;25777;47.824;18.982;2022-12-05T06:28:37;5.00;99.90
40077;DHT22;25777;47.824;18.982;2022-12-05T06:31:09;4.90;99.90
40077;DHT22;25777;47.824;18.982;2022-12-05T06:33:35;5.00;99.90
40077;DHT22;25777;47.824;18.982;2022-12-05T06:36:07;4.90;99.90
40077;DHT22;25777;47.824;18.982;2022-12-05T06:38:34;4.90;99.90
40077;DHT22;25777;47.824;18.982;2022-12-05T06:41:07;4.90;99.90
40077;DHT22;25777;47.824;18.982;2022-12-05T06:43:34;4.90;99.90
40077;DHT22;25777;47.824;18.982;2022-12-05T06:46:07;4.90;99.90
40077;DHT22;25777;47.824;18.982;2022-12-05T06:48:33;4.90;99.90
40077;DHT22;25777;47.824;18.982;2022-12-05T06:51:01;4.90;99.90
40077;DHT22;25777;47.824;18.982;2022-12-05T06:53:27;4.90;99.90
40077;DHT22;25777;47.824;18.982;2022-12-05T06:55:58;4.90;99.90
40077;DHT22;25777;47.824;18.982;2022-12-05T06:58:26;5.00;99.90
40077;DHT22;25777;47.824;18.982;2022-12-05T07:00:52;4.90;99.90
40077;DHT22;25777;47.824;18.982;2022-12-05T07:03:38;4.90;99.90
40077;DHT22;25777;47.824;18.982;2022-12-05T07:06:06;4.90;99.90
40077;DHT22;25777;47.824;18.982;2022-12-05T07:08:33;4.90;99.90
40077;DHT22;25777;47.824;18.982;2022-12-05T07:11:00;4.90;99.90
40077;DHT22;25777;47.824;18.982;2022-12-05T07:13:26;4.90;99.90
40077;DHT22;25777;47.824;18.982;2022-12-05T07:15:52;4.90;99.90
40077;DHT22;25777;47.824;18.982;2022-12-05T07:18:18;4.90;99.90
40077;DHT22;25777;47.824;18.982;2022-12-05T07:20:44;4.90;99.90
40077;DHT22;25777;47.824;18.982;2022-12-05T07:23:10;4.90;99.90
40077;DHT22;25777;47.824;18.982;2022-12-05T07:25:40;5.00;99.90
40077;DHT22;25777;47.824;18.982;2022-12-05T07:28:06;4.90;99.90
40077;DHT22;25777;47.824;18.982;2022-12-05T07:30:33;5.00;99.90
40077;DHT22;25777;47.824;18.982;2022-12-05T07:32:59;5.00;99.90
40077;DHT22;25777;47.824;18.982;2022-12-05T07:35:25;5.00;99.90
40077;DHT22;25777;47.824;18.982;2022-12-05T07:37:51;5.00;99.90
40077;DHT22;25777;47.824;18.982;2022-12-05T07:40:17;5.00;99.90
40077;DHT22;25777;47.824;18.982;2022-12-05T07:42:43;5.00;99.90
40077;DHT22;25777;47.824;18.982;2022-12-05T07:45:12;5.00;99.90
40077;DHT22;25777;47.824;18.982;2022-12-05T07:47:38;5.00;99.90
40077;DHT22;25777;47.824;18.982;2022-12-05T07:50:04;5.00;99.90
40077;DHT22;25777;47.824;18.982;2022-12-05T07:52:30;5.00;99.90
40077;DHT22;25777;47.824;18.982;2022-12-05T07:54:56;5.00;99.90
40077;DHT22;25777;47.824;18.982;2022-12-05T07:57:23;5.00;99.90
40077;DHT22;25777;47.824;18.982;2022-12-05T07:59:49;5.10;99.90
40077;DHT22;25777;47.824;18.982;2022-12-05T08:02:15;5.10;99.90
40077;DHT22;25777;47.824;18.982;2022-12-05T08:04:40;5.10;99.90
40077;DHT22;25777;47.824;18.982;2022-12-05T08:07:09;5.10;99.90
40077;DHT22;25777;47.824;18.982;2022-12-05T08:09:35;5.10;99.90
40077;DHT22;25777;47.824;18.982;2022-12-05T08:12:01;5.10;99.90
40077;DHT22;25777;47.824;18.982;2022-12-05T08:14:27;5.20;99.90
40077;DHT22;25777;47.824;18.982;2022-12-05T08:16:53;5.20;99.90
40077;DHT22;25777;47.824;18.982;2022-12-05T08:19:19;5.20;99.90
40077;DHT22;25777;47.824;18.982;2022-12-05T08:21:45;5.20;99.90
40077;DHT22;25777;47.824;18.982;2022-12-05T08:24:11;5.20;99.90
40077;DHT22;25777;47.824;18.982;2022-12-05T08:26:38;5.20;99.90
40077;DHT22;25777;47.824;18.982;2022-12-05T08:29:07;5.20;99.90
40077;DHT22;25777;47.824;18.982;2022-12-05T08:31:35;5.20;99.90
40077;DHT22;25777;47.824;18.982;2022-12-05T08:34:01;5.20;99.90
40077;DHT22;25777;47.824;18.982;2022-12-05T08:36:29;5.30;99.90
40077;DHT22;25777;47.824;18.982;2022-12-05T08:39:00;5.30;99.90
40077;DHT22;25777;47.824;18.982;2022-12-05T08:41:28;5.20;99.90
40077;DHT22;25777;47.824;18.982;2022-12-05T08:43:59;5.20;99.90
40077;DHT22;25777;47.824;18.982;2022-12-05T08:46:26;5.20;99.90
40077;DHT22;25777;47.824;18.982;2022-12-05T08:48:51;5.20;99.90
40077;DHT22;25777;47.824;18.982;2022-12-05T08:51:17;5.20;99.90
40077;DHT22;25777;47.824;18.982;2022-12-05T08:53:43;5.30;99.90
40077;DHT22;25777;47.824;18.982;2022-12-05T08:56:09;5.20;99.90
40077;DHT22;25777;47.824;18.982;2022-12-05T08:58:36;5.20;99.90
40077;DHT22;25777;47.824;18.982;2022-12-05T09:01:07;5.20;99.90
40077;DHT22;25777;47.824;18.982;2022-12-05T09:03:34;5.20;99.90
40077;DHT22;25777;47.824;18.982;2022-12-05T09:06:07;5.20;99.90
40077;DHT22;25777;47.824;18.982;2022-12-05T09:08:34;5.20;99.90
40077;DHT22;25777;47.824;18.982;2022-12-05T09:11:07;5.30;99.90
40077;DHT22;25777;47.824;18.982;2022-12-05T09:13:34;5.30;99.90
40077;DHT22;25777;47.824;18.982;2022-12-05T09:16:08;5.30;99.90
40077;DHT22;25777;47.824;18.982;2022-12-05T09:18:36;5.30;99.90
40077;DHT22;25777;47.824;18.982;2022-12-05T09:21:08;5.30;99.90
40077;DHT22;25777;47.824;18.982;2022-12-05T09:23:35;5.20;99.90
40077;DHT22;25777;47.824;18.982;2022-12-05T09:26:03;5.30;99.90
40077;DHT22;25777;47.824;18.982;2022-12-05T09:28:30;5.20;99.90
40077;DHT22;25777;47.824;18.982;2022-12-05T09:30:57;5.30;99.90
40077;DHT22;25777;47.824;18.982;2022-12-05T09:33:24;5.30;99.90
40077;DHT22;25777;47.824;18.982;2022-12-05T09:35:50;5.30;99.90
40077;DHT22;25777;47.824;18.982;2022-12-05T09:38:16;5.30;99.90
40077;DHT22;25777;47.824;18.982;2022-12-05T09:40:42;5.30;99.90
40077;DHT22;25777;47.824;18.982;2022-12-05T09:46:11;5.30;99.90
40077;DHT22;25777;47.824;18.982;2022-12-05T09:48:41;5.40;99.90
40077;DHT22;25777;47.824;18.982;2022-12-05T09:51:10;5.40;99.90
40077;DHT22;25777;47.824;18.982;2022-12-05T09:53:39;5.30;99.90
40077;DHT22;25777;47.824;18.982;2022-12-05T09:58:43;5.40;99.90
40077;DHT22;25777;47.824;18.982;2022-12-05T10:01:35;5.40;99.90
40077;DHT22;25777;47.824;18.982;2022-12-05T10:23:10;5.50;99.90
40077;DHT22;25777;47.824;18.982;2022-12-05T10:25:38;5.50;99.90
40077;DHT22;25777;47.824;18.982;2022-12-05T10:28:17;5.50;99.90
40077;DHT22;25777;47.824;18.982;2022-12-05T10:30:53;5.50;99.90
40077;DHT22;25777;47.824;18.982;2022-12-05T10:33:23;5.60;99.90
40077;DHT22;25777;47.824;18.982;2022-12-05T10:35:49;5.50;99.90
40077;DHT22;25777;47.824;18.982;2022-12-05T10:38:30;5.60;99.90
40077;DHT22;25777;47.824;18.982;2022-12-05T10:41:00;5.70;99.90
40077;DHT22;25777;47.824;18.982;2022-12-05T10:43:30;5.70;99.90
40077;DHT22;25777;47.824;18.982;2022-12-05T10:45:58;5.70;99.90
40077;DHT22;25777;47.824;18.982;2022-12-05T10:48:26;5.80;99.90
40077;DHT22;25777;47.824;18.982;2022-12-05T10:50:55;5.80;99.90
40077;DHT22;25777;47.824;18.982;2022-12-05T10:53:27;5.70;99.90
40077;DHT22;25777;47.824;18.982;2022-12-05T10:55:54;5.70;99.90
40077;DHT22;25777;47.824;18.982;2022-12-05T10:58:28;5.70;99.90
40077;DHT22;25777;47.824;18.982;2022-12-05T11:03:35;5.60;99.90
40077;DHT22;25777;47.824;18.982;2022-12-05T11:06:17;5.60;99.90
40077;DHT22;25777;47.824;18.982;2022-12-05T11:08:51;5.60;99.90
40077;DHT22;25777;47.824;18.982;2022-12-05T11:11:28;5.60;99.90
40077;DHT22;25777;47.824;18.982;2022-12-05T11:14:01;5.60;99.90
40077;DHT22;25777;47.824;18.982;2022-12-05T11:16:33;5.50;99.90
40077;DHT22;25777;47.824;18.982;2022-12-05T11:21:48;5.60;99.90
40077;DHT22;25777;47.824;18.982;2022-12-05T11:24:34;5.60;99.90
40077;DHT22;25777;47.824;18.982;2022-12-05T11:29:45;5.60;99.90
40077;DHT22;25777;47.824;18.982;2022-12-05T11:32:23;5.60;99.90
40077;DHT22;25777;47.824;18.982;2022-12-05T11:38:25;5.70;99.90
40077;DHT22;25777;47.824;18.982;2022-12-05T11:46:06;5.70;99.90
40077;DHT22;25777;47.824;18.982;2022-12-05T11:48:55;5.70;99.90
40077;DHT22;25777;47.824;18.982;2022-12-05T11:51:43;5.70;99.90
40077;DHT22;25777;47.824;18.982;2022-12-05T11:54:27;5.80;99.90
40077;DHT22;25777;47.824;18.982;2022-12-05T11:57:32;5.80;99.90
40077;DHT22;25777;47.824;18.982;2022-12-05T12:03:34;5.80;99.90
40077;DHT22;25777;47.824;18.982;2022-12-05T12:05:37;5.80;99.90
40077;DHT22;25777;47.824;18.982;2022-12-05T12:08:25;5.80;99.90
40077;DHT22;25777;47.824;18.982;2022-12-05T12:14:06;5.90;99.90
40077;DHT22;25777;47.824;18.982;2022-12-05T12:24:55;5.90;99.90
40077;DHT22;25777;47.824;18.982;2022-12-05T12:32:48;5.90;99.90
40077;DHT22;25777;47.824;18.982;2022-12-05T12:35:37;6.00;99.90
40077;DHT22;25777;47.824;18.982;2022-12-05T12:40:55;6.00;99.90
40077;DHT22;25777;47.824;18.982;2022-12-05T12:46:10;6.00;99.90
40077;DHT22;25777;47.824;18.982;2022-12-05T12:51:52;6.00;99.90
40077;DHT22;25777;47.824;18.982;2022-12-05T12:54:40;6.00;99.90
40077;DHT22;25777;47.824;18.982;2022-12-05T12:57:33;6.00;99.90
40077;DHT22;25777;47.824;18.982;2022-12-05T13:03:04;6.00;99.90
40077;DHT22;25777;47.824;18.982;2022-12-05T13:05:44;6.00;99.90
40077;DHT22;25777;47.824;18.982;2022-12-05T13:08:43;6.00;99.90
40077;DHT22;25777;47.824;18.982;2022-12-05T13:11:13;6.00;99.90
40077;DHT22;25777;47.824;18.982;2022-12-05T13:13:47;6.00;99.90
40077;DHT22;25777;47.824;18.982;2022-12-05T13:16:33;6.00;99.90
40077;DHT22;25777;47.824;18.982;2022-12-05T13:19:02;6.00;99.90
40077;DHT22;25777;47.824;18.982;2022-12-05T13:21:30;6.00;99.90
40077;DHT22;25777;47.824;18.982;2022-12-05T13:23:58;6.00;99.90
40077;DHT22;25777;47.824;18.982;2022-12-05T13:26:31;6.00;99.90
40077;DHT22;25777;47.824;18.982;2022-12-05T13:29:01;6.00;99.90
40077;DHT22;25777;47.824;18.982;2022-12-05T13:31:39;6.00;99.90
40077;DHT22;25777;47.824;18.982;2022-12-05T13:37:10;6.00;99.90
40077;DHT22;25777;47.824;18.982;2022-12-05T13:39:56;6.00;99.90
40077;DHT22;25777;47.824;18.982;2022-12-05T13:42:41;6.00;99.90
40077;DHT22;25777;47.824;18.982;2022-12-05T13:45:14;6.00;99.90
40077;DHT22;25777;47.824;18.982;2022-12-05T13:48:03;6.00;99.90
40077;DHT22;25777;47.824;18.982;2022-12-05T13:50:33;6.00;99.90
40077;DHT22;25777;47.824;18.982;2022-12-05T13:53:15;6.00;99.90
40077;DHT22;25777;47.824;18.982;2022-12-05T13:55:59;6.00;99.90
40077;DHT22;25777;47.824;18.982;2022-12-05T14:09:27;6.10;99.90
40077;DHT22;25777;47.824;18.982;2022-12-05T14:17:40;6.10;99.90
40077;DHT22;25777;47.824;18.982;2022-12-05T14:22:57;6.10;99.90
40077;DHT22;25777;47.824;18.982;2022-12-05T14:34:30;6.00;99.90
40077;DHT22;25777;47.824;18.982;2022-12-05T14:39:40;6.00;99.90
40077;DHT22;25777;47.824;18.982;2022-12-05T14:42:35;6.00;99.90
40077;DHT22;25777;47.824;18.982;2022-12-05T14:45:23;6.00;99.90
40077;DHT22;25777;47.824;18.982;2022-12-05T14:47:55;6.00;99.90
40077;DHT22;25777;47.824;18.982;2022-12-05T15:06:25;6.10;99.90
40077;DHT22;25777;47.824;18.982;2022-12-05T15:08:55;6.10;99.90
40077;DHT22;25777;47.824;18.982;2022-12-05T15:11:24;6.10;99.90
40077;DHT22;25777;47.824;18.982;2022-12-05T15:14:12;6.10;99.90
40077;DHT22;25777;47.824;18.982;2022-12-05T15:16:43;6.10;99.90
40077;DHT22;25777;47.824;18.982;2022-12-05T15:19:20;6.10;99.90
40077;DHT22;25777;47.824;18.982;2022-12-05T15:21:53;6.20;99.90
40077;DHT22;25777;47.824;18.982;2022-12-05T15:24:21;6.10;99.90
40077;DHT22;25777;47.824;18.982;2022-12-05T15:26:57;6.10;99.90
40077;DHT22;25777;47.824;18.982;2022-12-05T15:29:28;6.10;99.90
40077;DHT22;25777;47.824;18.982;2022-12-05T15:32:23;6.10;99.90
40077;DHT22;25777;47.824;18.982;2022-12-05T15:34:59;6.20;99.90
40077;DHT22;25777;47.824;18.982;2022-12-05T15:40:18;6.20;99.90
40077;DHT22;25777;47.824;18.982;2022-12-05T15:42:55;6.20;99.90
40077;DHT22;25777;47.824;18.982;2022-12-05T15:45:25;6.20;99.90
40077;DHT22;25777;47.824;18.982;2022-12-05T15:48:10;6.20;99.90
40077;DHT22;25777;47.824;18.982;2022-12-05T15:53:12;6.20;99.90
40077;DHT22;25777;47.824;18.982;2022-12-05T15:55:50;6.20;99.90
40077;DHT22;25777;47.824;18.982;2022-12-05T15:58:20;6.20;99.90
40077;DHT22;25777;47.824;18.982;2022-12-05T16:00:50;6.30;99.90
40077;DHT22;25777;47.824;18.982;2022-12-05T16:03:26;6.20;99.90
40077;DHT22;25777;47.824;18.982;2022-12-05T16:06:10;6.20;99.90
40077;DHT22;25777;47.824;18.982;2022-12-05T16:08:46;6.30;99.90
40077;DHT22;25777;47.824;18.982;2022-12-05T16:11:13;6.30;99.90
40077;DHT22;25777;47.824;18.982;2022-12-05T16:13:47;6.30;99.90
40077;DHT22;25777;47.824;18.982;2022-12-05T16:16:20;6.30;99.90
40077;DHT22;25777;47.824;18.982;2022-12-05T16:18:52;6.30;99.90
40077;DHT22;25777;47.824;18.982;2022-12-05T16:21:36;6.30;99.90
40077;DHT22;25777;47.824;18.982;2022-12-05T16:24:19;6.30;99.90
40077;DHT22;25777;47.824;18.982;2022-12-05T16:27:02;6.30;99.90
40077;DHT22;25777;47.824;18.982;2022-12-05T16:29:31;6.30;99.90
40077;DHT22;25777;47.824;18.982;2022-12-05T16:31:59;6.30;99.90
40077;DHT22;25777;47.824;18.982;2022-12-05T16:34:27;6.30;99.90
40077;DHT22;25777;47.824;18.982;2022-12-05T16:36:55;6.30;99.90
40077;DHT22;25777;47.824;18.982;2022-12-05T16:39:22;6.30;99.90
40077;DHT22;25777;47.824;18.982;2022-12-05T16:41:49;6.30;99.90
40077;DHT22;25777;47.824;18.982;2022-12-05T16:46:56;6.30;99.90
40077;DHT22;25777;47.824;18.982;2022-12-05T16:52:18;6.30;99.90
40077;DHT22;25777;47.824;18.982;2022-12-05T16:54:45;6.30;99.90
40077;DHT22;25777;47.824;18.982;2022-12-05T16:57:14;6.30;99.90
40077;DHT22;25777;47.824;18.982;2022-12-05T16:59:41;6.40;99.90
40077;DHT22;25777;47.824;18.982;2022-12-05T17:02:16;6.30;99.90
40077;DHT22;25777;47.824;18.982;2022-12-05T17:04:42;6.40;99.90
40077;DHT22;25777;47.824;18.982;2022-12-05T17:07:08;6.40;99.90
40077;DHT22;25777;47.824;18.982;2022-12-05T17:09:35;6.40;99.90
40077;DHT22;25777;47.824;18.982;2022-12-05T17:12:06;6.40;99.90
40077;DHT22;25777;47.824;18.982;2022-12-05T17:14:36;6.40;99.90
40077;DHT22;25777;47.824;18.982;2022-12-05T17:17:02;6.40;99.90
40077;DHT22;25777;47.824;18.982;2022-12-05T17:19:30;6.40;99.90
40077;DHT22;25777;47.824;18.982;2022-12-05T17:21:57;6.40;99.90
40077;DHT22;25777;47.824;18.982;2022-12-05T17:24:24;6.40;99.90
40077;DHT22;25777;47.824;18.982;2022-12-05T17:26:52;6.40;99.90
40077;DHT22;25777;47.824;18.982;2022-12-05T17:29:18;6.40;99.90
40077;DHT22;25777;47.824;18.982;2022-12-05T17:31:44;6.40;99.90
40077;DHT22;25777;47.824;18.982;2022-12-05T17:34:16;6.40;99.90
40077;DHT22;25777;47.824;18.982;2022-12-05T17:36:43;6.40;99.90
40077;DHT22;25777;47.824;18.982;2022-12-05T17:39:09;6.40;99.90
40077;DHT22;25777;47.824;18.982;2022-12-05T17:41:35;6.50;99.90
40077;DHT22;25777;47.824;18.982;2022-12-05T17:44:03;6.50;99.90
40077;DHT22;25777;47.824;18.982;2022-12-05T17:46:29;6.50;99.90
40077;DHT22;25777;47.824;18.982;2022-12-05T17:48:55;6.60;99.90
40077;DHT22;25777;47.824;18.982;2022-12-05T17:51:22;6.60;99.90
40077;DHT22;25777;47.824;18.982;2022-12-05T17:53:48;6.60;99.90
40077;DHT22;25777;47.824;18.982;2022-12-05T17:56:14;6.60;99.90
40077;DHT22;25777;47.824;18.982;2022-12-05T17:58:41;6.70;99.90
40077;DHT22;25777;47.824;18.982;2022-12-05T18:01:13;6.70;99.90
40077;DHT22;25777;47.824;18.982;2022-12-05T18:03:39;6.70;99.90
40077;DHT22;25777;47.824;18.982;2022-12-05T18:06:06;6.70;99.90
40077;DHT22;25777;47.824;18.982;2022-12-05T18:08:32;6.70;99.90
40077;DHT22;25777;47.824;18.982;2022-12-05T18:10:59;6.70;99.90
40077;DHT22;25777;47.824;18.982;2022-12-05T18:13:25;6.60;99.90
40077;DHT22;25777;47.824;18.982;2022-12-05T18:15:55;6.60;99.90
40077;DHT22;25777;47.824;18.982;2022-12-05T18:18:23;6.60;99.90
40077;DHT22;25777;47.824;18.982;2022-12-05T18:20:53;6.60;99.90
40077;DHT22;25777;47.824;18.982;2022-12-05T18:23:19;6.60;99.90
40077;DHT22;25777;47.824;18.982;2022-12-05T18:25:54;6.60;99.90
40077;DHT22;25777;47.824;18.982;2022-12-05T18:28:21;6.60;99.90
40077;DHT22;25777;47.824;18.982;2022-12-05T18:30:47;6.60;99.90
40077;DHT22;25777;47.824;18.982;2022-12-05T18:33:12;6.60;99.90
40077;DHT22;25777;47.824;18.982;2022-12-05T18:35:39;6.60;99.90
40077;DHT22;25777;47.824;18.982;2022-12-05T18:38:10;6.50;99.90
40077;DHT22;25777;47.824;18.982;2022-12-05T18:40:36;6.50;99.90
40077;DHT22;25777;47.824;18.982;2022-12-05T18:43:02;6.60;99.90